N68CB M54-KGSP
Flight info
| Callsign | N68CB |
|---|---|
| Flight time | N/A |
| Altitude | 31000 |
| Route | TAZMO |
| Aircraft | C750/M-SBDE3FGHRWXY/S |
Departure
| Time | N/A |
|---|---|
| Airport | M54 |
Arrival
| Time | 2026-05-09 02:57 |
|---|---|
| Airport | Greenville-Spartanburg International Airport (KGSP) |
| Time | Latitude | Longitude | Altitude | Speed | Heading |
|---|---|---|---|---|---|
| 2026-05-09 02:07 | 36.18750 | -86.31500 | 572 ft | 0 kts | 5° |
| 2026-05-09 02:19 | 36.18751 | -86.31500 | 570 ft | 1 kts | 4° |
| 2026-05-09 02:19 | 36.18754 | -86.31509 | 570 ft | 4 kts | 289° |
| 2026-05-09 02:19 | 36.18761 | -86.31570 | 575 ft | 6 kts | 320° |
| 2026-05-09 02:20 | 36.18815 | -86.31578 | 574 ft | 10 kts | 7° |
| 2026-05-09 02:20 | 36.18873 | -86.31569 | 569 ft | 14 kts | 6° |
| 2026-05-09 02:20 | 36.18969 | -86.31555 | 570 ft | 13 kts | 7° |
| 2026-05-09 02:20 | 36.19056 | -86.31543 | 570 ft | 12 kts | 5° |
| 2026-05-09 02:21 | 36.19137 | -86.31530 | 570 ft | 12 kts | 8° |
| 2026-05-09 02:21 | 36.19215 | -86.31520 | 575 ft | 11 kts | 5° |
| 2026-05-09 02:21 | 36.19287 | -86.31510 | 573 ft | 10 kts | 7° |
| 2026-05-09 02:21 | 36.19361 | -86.31499 | 575 ft | 13 kts | 6° |
| 2026-05-09 02:22 | 36.19480 | -86.31483 | 571 ft | 20 kts | 7° |
| 2026-05-09 02:22 | 36.19605 | -86.31465 | 576 ft | 17 kts | 6° |
| 2026-05-09 02:22 | 36.19710 | -86.31468 | 576 ft | 1 kts | 313° |
| 2026-05-09 02:22 | 36.19717 | -86.31480 | 575 ft | 6 kts | 296° |
| 2026-05-09 02:23 | 36.19687 | -86.31558 | 574 ft | 13 kts | 182° |
| 2026-05-09 02:23 | 36.19672 | -86.31559 | 574 ft | 5 kts | 185° |
| 2026-05-09 02:23 | 36.19242 | -86.31618 | 569 ft | 122 kts | 186° |
| 2026-05-09 02:23 | 36.18270 | -86.31762 | 992 ft | 150 kts | 187° |
| 2026-05-09 02:24 | 36.17176 | -86.31948 | 1644 ft | 165 kts | 189° |
| 2026-05-09 02:24 | 36.16031 | -86.32162 | 2552 ft | 167 kts | 189° |
| 2026-05-09 02:24 | 36.14843 | -86.32402 | 3490 ft | 181 kts | 191° |
| 2026-05-09 02:24 | 36.13541 | -86.32696 | 4347 ft | 199 kts | 192° |
| 2026-05-09 02:25 | 36.12080 | -86.32733 | 4948 ft | 230 kts | 167° |
| 2026-05-09 02:25 | 36.10697 | -86.31485 | 5388 ft | 269 kts | 129° |
| 2026-05-09 02:25 | 36.09867 | -86.29398 | 6508 ft | 271 kts | 116° |
| 2026-05-09 02:25 | 36.09132 | -86.27209 | 7471 ft | 280 kts | 115° |
| 2026-05-09 02:26 | 36.08369 | -86.24955 | 8517 ft | 288 kts | 115° |
| 2026-05-09 02:26 | 36.07583 | -86.22637 | 9561 ft | 296 kts | 115° |
| 2026-05-09 02:26 | 36.06774 | -86.20250 | 10355 ft | 309 kts | 115° |
| 2026-05-09 02:26 | 36.06011 | -86.17641 | 10667 ft | 337 kts | 110° |
| 2026-05-09 02:27 | 36.05304 | -86.14754 | 10823 ft | 365 kts | 109° |
| 2026-05-09 02:27 | 36.04507 | -86.11723 | 11460 ft | 372 kts | 111° |
| 2026-05-09 02:27 | 36.03639 | -86.08696 | 12234 ft | 377 kts | 111° |
| 2026-05-09 02:27 | 36.02771 | -86.05618 | 12952 ft | 383 kts | 111° |
| 2026-05-09 02:28 | 36.01934 | -86.02513 | 13667 ft | 389 kts | 110° |
| 2026-05-09 02:28 | 36.01059 | -85.99287 | 14302 ft | 394 kts | 111° |
| 2026-05-09 02:28 | 36.00161 | -85.96063 | 14928 ft | 400 kts | 111° |
| 2026-05-09 02:28 | 35.99248 | -85.92794 | 15530 ft | 406 kts | 111° |
| 2026-05-09 02:29 | 35.98332 | -85.89472 | 16158 ft | 412 kts | 111° |
| 2026-05-09 02:29 | 35.97403 | -85.86095 | 16802 ft | 418 kts | 111° |
| 2026-05-09 02:29 | 35.96455 | -85.82681 | 17472 ft | 423 kts | 111° |
| 2026-05-09 02:29 | 35.95503 | -85.79266 | 18132 ft | 430 kts | 111° |
| 2026-05-09 02:30 | 35.94526 | -85.75753 | 18734 ft | 436 kts | 111° |
| 2026-05-09 02:30 | 35.93538 | -85.72191 | 19350 ft | 441 kts | 111° |
| 2026-05-09 02:30 | 35.92532 | -85.68586 | 19956 ft | 448 kts | 111° |
| 2026-05-09 02:30 | 35.91510 | -85.64934 | 20609 ft | 453 kts | 111° |
| 2026-05-09 02:31 | 35.90476 | -85.61235 | 21249 ft | 459 kts | 111° |
| 2026-05-09 02:31 | 35.89430 | -85.57487 | 21873 ft | 466 kts | 111° |
| 2026-05-09 02:31 | 35.88364 | -85.53687 | 22492 ft | 472 kts | 111° |
| 2026-05-09 02:31 | 35.87280 | -85.49838 | 22977 ft | 480 kts | 111° |
| 2026-05-09 02:32 | 35.86162 | -85.45870 | 22986 ft | 500 kts | 111° |
| 2026-05-09 02:32 | 35.85003 | -85.41745 | 22997 ft | 516 kts | 111° |
| 2026-05-09 02:32 | 35.83823 | -85.37544 | 22994 ft | 521 kts | 111° |
| 2026-05-09 02:32 | 35.82631 | -85.33317 | 22995 ft | 523 kts | 111° |
| 2026-05-09 02:33 | 35.81429 | -85.29081 | 22997 ft | 524 kts | 111° |
| 2026-05-09 02:33 | 35.80225 | -85.24838 | 23001 ft | 525 kts | 111° |
| 2026-05-09 02:33 | 35.79022 | -85.20588 | 22999 ft | 526 kts | 111° |
| 2026-05-09 02:33 | 35.77817 | -85.16339 | 23000 ft | 526 kts | 111° |
| 2026-05-09 02:34 | 35.76605 | -85.12087 | 23001 ft | 526 kts | 111° |
| 2026-05-09 02:34 | 35.75394 | -85.07848 | 23000 ft | 523 kts | 111° |
| 2026-05-09 02:34 | 35.74200 | -85.03656 | 23590 ft | 510 kts | 112° |
| 2026-05-09 02:34 | 35.73054 | -84.99627 | 24645 ft | 494 kts | 113° |
| 2026-05-09 02:35 | 35.71897 | -84.95605 | 25046 ft | 503 kts | 114° |
| 2026-05-09 02:35 | 35.70720 | -84.91528 | 25539 ft | 508 kts | 114° |
| 2026-05-09 02:35 | 35.69538 | -84.87407 | 26019 ft | 514 kts | 114° |
| 2026-05-09 02:35 | 35.68343 | -84.83231 | 26496 ft | 520 kts | 115° |
| 2026-05-09 02:36 | 35.67131 | -84.79019 | 27001 ft | 526 kts | 115° |
| 2026-05-09 02:36 | 35.65896 | -84.74756 | 27482 ft | 532 kts | 115° |
| 2026-05-09 02:36 | 35.64651 | -84.70447 | 27968 ft | 538 kts | 116° |
| 2026-05-09 02:36 | 35.63395 | -84.66093 | 28418 ft | 544 kts | 116° |
| 2026-05-09 02:37 | 35.62116 | -84.61680 | 28808 ft | 551 kts | 116° |
| 2026-05-09 02:37 | 35.60819 | -84.57222 | 29316 ft | 556 kts | 117° |
| 2026-05-09 02:37 | 35.59510 | -84.52719 | 29763 ft | 562 kts | 117° |
| 2026-05-09 02:37 | 35.58190 | -84.48177 | 30205 ft | 568 kts | 117° |
| 2026-05-09 02:38 | 35.56856 | -84.43598 | 30644 ft | 571 kts | 117° |
| 2026-05-09 02:38 | 35.55508 | -84.38987 | 30998 ft | 577 kts | 117° |
| 2026-05-09 02:38 | 35.54130 | -84.34304 | 30980 ft | 590 kts | 117° |
| 2026-05-09 02:38 | 35.52722 | -84.29507 | 30986 ft | 603 kts | 117° |
| 2026-05-09 02:39 | 35.51295 | -84.24623 | 30985 ft | 613 kts | 117° |
| 2026-05-09 02:39 | 35.48370 | -84.14678 | 31000 ft | 624 kts | 117° |
| 2026-05-09 02:40 | 35.45409 | -84.04650 | 31017 ft | 625 kts | 117° |
| 2026-05-09 02:40 | 35.42438 | -83.94631 | 31025 ft | 625 kts | 117° |
| 2026-05-09 02:41 | 35.39470 | -83.84654 | 31038 ft | 622 kts | 117° |
| 2026-05-09 02:41 | 35.36491 | -83.74685 | 31049 ft | 624 kts | 117° |
| 2026-05-09 02:42 | 35.33503 | -83.64701 | 31040 ft | 624 kts | 117° |
| 2026-05-09 02:42 | 35.30501 | -83.54722 | 31034 ft | 626 kts | 117° |
| 2026-05-09 02:43 | 35.27499 | -83.44755 | 31014 ft | 608 kts | 117° |
| 2026-05-09 02:43 | 35.26096 | -83.40026 | 30427 ft | 576 kts | 117° |
| 2026-05-09 02:43 | 35.24717 | -83.35493 | 29042 ft | 562 kts | 118° |
| 2026-05-09 02:43 | 35.23342 | -83.31084 | 27822 ft | 548 kts | 117° |
| 2026-05-09 02:44 | 35.22032 | -83.26776 | 26695 ft | 532 kts | 115° |
| 2026-05-09 02:44 | 35.20779 | -83.22577 | 25556 ft | 519 kts | 115° |
| 2026-05-09 02:44 | 35.19545 | -83.18507 | 24456 ft | 504 kts | 114° |
| 2026-05-09 02:44 | 35.18321 | -83.14556 | 23346 ft | 490 kts | 114° |
| 2026-05-09 02:45 | 35.17142 | -83.10724 | 22121 ft | 476 kts | 114° |
| 2026-05-09 02:45 | 35.16005 | -83.06975 | 20887 ft | 464 kts | 114° |
| 2026-05-09 02:45 | 35.14892 | -83.03319 | 19729 ft | 453 kts | 114° |
| 2026-05-09 02:45 | 35.13796 | -82.99764 | 18580 ft | 442 kts | 114° |
| 2026-05-09 02:46 | 35.12725 | -82.96294 | 17260 ft | 432 kts | 114° |
| 2026-05-09 02:46 | 35.11684 | -82.92898 | 16095 ft | 421 kts | 114° |
| 2026-05-09 02:46 | 35.10665 | -82.89584 | 14893 ft | 412 kts | 113° |
| 2026-05-09 02:46 | 35.09662 | -82.86340 | 13700 ft | 405 kts | 113° |
| 2026-05-09 02:47 | 35.08693 | -82.83203 | 12569 ft | 396 kts | 112° |
| 2026-05-09 02:47 | 35.07750 | -82.80145 | 12029 ft | 372 kts | 112° |
| 2026-05-09 02:47 | 35.06874 | -82.77297 | 11777 ft | 345 kts | 112° |
| 2026-05-09 02:47 | 35.06059 | -82.74664 | 11492 ft | 322 kts | 113° |
| 2026-05-09 02:48 | 35.05263 | -82.72106 | 10987 ft | 321 kts | 113° |
| 2026-05-09 02:48 | 35.04479 | -82.69581 | 10961 ft | 325 kts | 113° |
| 2026-05-09 02:48 | 35.03686 | -82.67028 | 10165 ft | 323 kts | 112° |
| 2026-05-09 02:48 | 35.02883 | -82.64442 | 9490 ft | 319 kts | 112° |
| 2026-05-09 02:49 | 35.02124 | -82.61987 | 8995 ft | 304 kts | 113° |
| 2026-05-09 02:49 | 35.01373 | -82.59578 | 8256 ft | 302 kts | 113° |
| 2026-05-09 02:49 | 35.00633 | -82.57207 | 7648 ft | 295 kts | 113° |
| 2026-05-09 02:49 | 34.99911 | -82.54888 | 7027 ft | 290 kts | 113° |
| 2026-05-09 02:50 | 34.99202 | -82.52611 | 6417 ft | 285 kts | 112° |
| 2026-05-09 02:50 | 34.98505 | -82.50378 | 5769 ft | 282 kts | 113° |
| 2026-05-09 02:50 | 34.97802 | -82.48129 | 5395 ft | 278 kts | 113° |
| 2026-05-09 02:50 | 34.97129 | -82.45967 | 5401 ft | 273 kts | 113° |
| 2026-05-09 02:51 | 34.96531 | -82.43718 | 5332 ft | 277 kts | 106° |
| 2026-05-09 02:51 | 34.96288 | -82.41408 | 5146 ft | 277 kts | 93° |
| 2026-05-09 02:51 | 34.96295 | -82.39151 | 4933 ft | 258 kts | 91° |
| 2026-05-09 02:51 | 34.96384 | -82.37005 | 4574 ft | 249 kts | 89° |
| 2026-05-09 02:52 | 34.96583 | -82.34948 | 4235 ft | 241 kts | 84° |
| 2026-05-09 02:52 | 34.96867 | -82.32983 | 4051 ft | 228 kts | 82° |
| 2026-05-09 02:52 | 34.97194 | -82.31154 | 3900 ft | 216 kts | 79° |
| 2026-05-09 02:52 | 34.97387 | -82.30200 | 3752 ft | 214 kts | 78° |
| 2026-05-09 02:53 | 34.97660 | -82.28912 | 3529 ft | 223 kts | 78° |
| 2026-05-09 02:53 | 34.98050 | -82.27078 | 3277 ft | 221 kts | 78° |
| 2026-05-09 02:53 | 34.98399 | -82.25283 | 3101 ft | 213 kts | 83° |
| 2026-05-09 02:53 | 34.98519 | -82.23536 | 2987 ft | 201 kts | 94° |
| 2026-05-09 02:54 | 34.98310 | -82.21894 | 2751 ft | 195 kts | 112° |
| 2026-05-09 02:54 | 34.97739 | -82.20432 | 2527 ft | 181 kts | 125° |
| 2026-05-09 02:54 | 34.97048 | -82.19319 | 2350 ft | 153 kts | 137° |
| 2026-05-09 02:54 | 34.96271 | -82.18568 | 2171 ft | 133 kts | 155° |
| 2026-05-09 02:55 | 34.95425 | -82.18241 | 1949 ft | 125 kts | 172° |
| 2026-05-09 02:55 | 34.94578 | -82.18221 | 1804 ft | 119 kts | 190° |
| 2026-05-09 02:55 | 34.93820 | -82.18613 | 1673 ft | 120 kts | 211° |
| 2026-05-09 02:55 | 34.93100 | -82.19174 | 1522 ft | 125 kts | 212° |
| 2026-05-09 02:56 | 34.92360 | -82.19748 | 1384 ft | 128 kts | 211° |
| 2026-05-09 02:56 | 34.91601 | -82.20328 | 1215 ft | 129 kts | 212° |
| 2026-05-09 02:56 | 34.90837 | -82.20919 | 1027 ft | 131 kts | 212° |
| 2026-05-09 02:56 | 34.90100 | -82.21479 | 956 ft | 110 kts | 212° |
| 2026-05-09 02:57 | 34.89703 | -82.21780 | 958 ft | 36 kts | 210° |
| 2026-05-09 02:57 | 34.89509 | -82.21930 | 959 ft | 32 kts | 212° |
| 2026-05-09 02:57 | 34.89339 | -82.22043 | 958 ft | 22 kts | 193° |
| 2026-05-09 02:57 | 34.89200 | -82.22072 | 957 ft | 18 kts | 182° |
| 2026-05-09 02:58 | 34.89110 | -82.22076 | 957 ft | 9 kts | 182° |
| 2026-05-09 02:58 | 34.89048 | -82.22062 | 957 ft | 9 kts | 130° |
| 2026-05-09 02:58 | 34.89078 | -82.22021 | 957 ft | 9 kts | 31° |
| 2026-05-09 02:58 | 34.89153 | -82.21966 | 957 ft | 14 kts | 31° |
| 2026-05-09 02:59 | 34.89237 | -82.21905 | 957 ft | 14 kts | 30° |
| 2026-05-09 02:59 | 34.89314 | -82.21843 | 957 ft | 13 kts | 34° |
| 2026-05-09 02:59 | 34.89390 | -82.21785 | 957 ft | 13 kts | 33° |
| 2026-05-09 02:59 | 34.89465 | -82.21728 | 957 ft | 13 kts | 30° |
| 2026-05-09 03:00 | 34.89539 | -82.21672 | 957 ft | 12 kts | 32° |
| 2026-05-09 03:00 | 34.89611 | -82.21616 | 957 ft | 12 kts | 32° |
| 2026-05-09 03:00 | 34.89683 | -82.21560 | 957 ft | 12 kts | 32° |
| 2026-05-09 03:00 | 34.89756 | -82.21506 | 957 ft | 12 kts | 32° |
| 2026-05-09 03:01 | 34.89828 | -82.21450 | 957 ft | 12 kts | 32° |
| 2026-05-09 03:01 | 34.89899 | -82.21395 | 957 ft | 12 kts | 32° |
| 2026-05-09 03:01 | 34.89934 | -82.21350 | 956 ft | 3 kts | 101° |
| 2026-05-09 03:01 | 34.89923 | -82.21327 | 957 ft | 4 kts | 122° |
| 2026-05-09 03:02 | 34.89898 | -82.21280 | 956 ft | 9 kts | 122° |
| 2026-05-09 03:02 | 34.89879 | -82.21220 | 957 ft | 6 kts | 57° |
| 2026-05-09 03:02 | 34.89893 | -82.21209 | 956 ft | 0 kts | 34° |